createdAt,value
2018-12-31T00:01:12.591Z,21.40
2018-12-31T00:04:02.367Z,18.27
2018-12-31T00:06:44.775Z,19.20
2018-12-31T00:09:34.580Z,18.33
2018-12-31T00:12:20.548Z,23.67
2018-12-31T00:15:10.377Z,23.57
2018-12-31T00:17:52.359Z,19.23
2018-12-31T00:20:42.126Z,19.87
2018-12-31T00:23:24.396Z,18.33
2018-12-31T00:26:14.445Z,19.07
2018-12-31T00:28:57.223Z,23.63
2018-12-31T00:31:47.317Z,18.80
2018-12-31T00:34:29.688Z,18.60
2018-12-31T00:37:00.410Z,18.70
2018-12-31T00:39:50.173Z,19.43
2018-12-31T00:45:39.635Z,18.70
2018-12-31T00:48:10.351Z,18.03
2018-12-31T00:51:00.242Z,18.20
2018-12-31T00:53:42.422Z,18.10
2018-12-31T00:56:32.581Z,17.20
2018-12-31T00:59:22.381Z,17.03
2018-12-31T01:05:16.212Z,18.57
2018-12-31T01:07:59.221Z,18.37
2018-12-31T01:11:08.414Z,17.57
2018-12-31T01:13:51.113Z,17.23
2018-12-31T01:16:40.888Z,18.07
2018-12-31T01:19:30.333Z,16.17
2018-12-31T01:22:20.147Z,17.17
2018-12-31T01:25:02.262Z,17.50
2018-12-31T01:27:52.291Z,16.83
2018-12-31T01:33:33.109Z,17.17
2018-12-31T01:36:22.896Z,16.77
2018-12-31T01:39:12.639Z,17.20
2018-12-31T01:42:02.441Z,17.07
2018-12-31T01:45:05.037Z,17.67
2018-12-31T01:47:47.271Z,16.80
2018-12-31T01:50:37.138Z,18.03
2018-12-31T01:53:19.236Z,18.17
2018-12-31T01:56:08.971Z,18.10
2018-12-31T01:58:51.263Z,17.73
2018-12-31T02:01:41.018Z,19.43
2018-12-31T02:04:30.756Z,18.03
2018-12-31T02:07:13.609Z,17.20
2018-12-31T02:10:03.404Z,17.30
2018-12-31T02:12:53.151Z,18.20
2018-12-31T02:15:42.878Z,18.57
2018-12-31T02:18:32.604Z,17.27
2018-12-31T02:21:14.723Z,17.30
2018-12-31T02:24:04.433Z,18.47
2018-12-31T02:26:54.159Z,18.20
2018-12-31T02:29:43.873Z,18.10
2018-12-31T02:32:26.617Z,19.27
2018-12-31T02:35:16.317Z,17.37
2018-12-31T02:37:58.402Z,18.40
2018-12-31T02:40:48.117Z,18.67
2018-12-31T02:43:30.812Z,19.40
2018-12-31T02:46:20.517Z,18.73
2018-12-31T02:54:39.195Z,19.77
2018-12-31T03:00:31.840Z,19.73
2018-12-31T03:03:14.290Z,19.50
2018-12-31T03:05:58.453Z,20.23
2018-12-31T03:08:40.694Z,19.67
2018-12-31T03:11:30.429Z,21.20
2018-12-31T03:14:20.222Z,19.50
2018-12-31T03:17:09.915Z,18.70
2018-12-31T03:19:59.644Z,20.30
2018-12-31T03:22:49.347Z,19.40
2018-12-31T03:25:31.786Z,18.03
2018-12-31T03:28:21.490Z,18.70
2018-12-31T03:31:03.644Z,18.53
2018-12-31T03:33:53.350Z,18.50
2018-12-31T03:36:35.362Z,18.70
2018-12-31T03:39:26.356Z,17.37
2018-12-31T03:42:08.786Z,16.90
2018-12-31T03:44:58.510Z,14.73
2018-12-31T03:47:40.988Z,14.50
2018-12-31T03:50:30.708Z,13.93
2018-12-31T03:53:13.491Z,14.43
2018-12-31T03:56:03.190Z,13.87
2018-12-31T03:58:45.510Z,13.33
2018-12-31T04:01:35.206Z,13.30
2018-12-31T04:04:17.509Z,14.13
2018-12-31T04:07:07.233Z,12.77
2018-12-31T04:09:49.231Z,13.47
2018-12-31T04:12:38.953Z,12.07
2018-12-31T04:15:21.085Z,12.33
2018-12-31T04:18:10.781Z,13.37
2018-12-31T04:21:00.553Z,12.60
2018-12-31T04:23:43.174Z,12.07
2018-12-31T04:26:52.072Z,12.37
2018-12-31T04:29:41.881Z,13.33
2018-12-31T04:32:31.618Z,11.90
2018-12-31T04:35:21.372Z,11.67
2018-12-31T04:38:03.498Z,11.77
2018-12-31T04:40:53.295Z,11.57
2018-12-31T04:43:43.075Z,11.50
2018-12-31T04:46:32.928Z,11.23
2018-12-31T04:49:22.737Z,10.90
2018-12-31T04:52:12.455Z,10.77
2018-12-31T05:00:44.309Z,10.83
2018-12-31T05:03:28.755Z,10.60
2018-12-31T05:06:10.883Z,11.00
2018-12-31T05:09:00.688Z,10.50
2018-12-31T05:11:50.423Z,10.60
2018-12-31T05:14:40.400Z,10.17
2018-12-31T05:17:30.151Z,10.27
2018-12-31T05:20:19.980Z,10.73
2018-12-31T05:23:09.730Z,11.30
2018-12-31T05:25:59.491Z,10.90
2018-12-31T05:28:49.244Z,10.20
2018-12-31T05:31:39.009Z,11.03
2018-12-31T05:34:41.680Z,11.33
2018-12-31T05:37:23.983Z,11.73
2018-12-31T05:40:13.684Z,13.83
2018-12-31T05:43:03.437Z,16.30
2018-12-31T05:45:45.638Z,18.93
2018-12-31T05:48:30.125Z,14.83
2018-12-31T05:51:19.862Z,11.03
2018-12-31T05:54:02.746Z,9.40
2018-12-31T05:56:52.667Z,10.50
2018-12-31T05:59:35.457Z,13.67
2018-12-31T06:02:25.195Z,10.80
2018-12-31T06:05:07.182Z,9.70
2018-12-31T06:07:56.940Z,9.13
2018-12-31T06:10:39.214Z,8.53
2018-12-31T06:13:28.944Z,7.63
2018-12-31T06:16:11.327Z,8.30
2018-12-31T06:19:01.052Z,7.10
2018-12-31T06:21:43.342Z,6.73
2018-12-31T06:24:33.088Z,7.60
2018-12-31T06:27:15.333Z,6.37
2018-12-31T06:30:05.280Z,7.30
2018-12-31T06:32:47.810Z,6.33
2018-12-31T06:35:37.712Z,8.60
2018-12-31T06:38:20.264Z,8.13
2018-12-31T06:41:10.320Z,7.57
2018-12-31T06:43:53.166Z,8.63
2018-12-31T06:46:55.993Z,8.53
2018-12-31T06:49:37.872Z,8.60
2018-12-31T06:52:27.578Z,10.87
2018-12-31T06:55:09.488Z,11.83
2018-12-31T06:57:59.249Z,13.13
2018-12-31T07:00:41.994Z,13.57
2018-12-31T07:09:17.646Z,12.30
2018-12-31T07:12:01.922Z,12.53
2018-12-31T07:14:44.031Z,11.97
2018-12-31T07:17:33.852Z,11.37
2018-12-31T07:20:23.625Z,11.50
2018-12-31T07:23:13.390Z,10.87
2018-12-31T07:26:03.279Z,10.23
2018-12-31T07:29:07.297Z,11.13
2018-12-31T07:31:51.272Z,11.80
2018-12-31T07:34:40.998Z,11.10
2018-12-31T07:37:23.500Z,11.00
2018-12-31T07:40:13.195Z,11.13
2018-12-31T07:42:55.656Z,8.87
2018-12-31T07:45:45.400Z,9.10
2018-12-31T07:48:27.874Z,9.10
2018-12-31T07:51:17.613Z,8.07
2018-12-31T07:53:59.909Z,7.73
2018-12-31T07:59:50.770Z,6.90
2018-12-31T08:02:40.525Z,7.77
2018-12-31T08:05:30.246Z,7.97
2018-12-31T08:08:13.062Z,6.87
2018-12-31T08:11:02.926Z,7.23
2018-12-31T08:13:52.704Z,6.77
2018-12-31T08:16:55.913Z,6.33
2018-12-31T08:19:38.203Z,6.50
2018-12-31T08:22:29.758Z,6.50
2018-12-31T08:25:32.263Z,6.67
2018-12-31T08:28:15.042Z,7.03
2018-12-31T08:31:04.767Z,6.80
2018-12-31T08:33:48.718Z,6.07
2018-12-31T08:36:38.403Z,6.67
2018-12-31T08:39:20.667Z,6.57
2018-12-31T08:42:10.370Z,7.00
2018-12-31T08:44:53.091Z,7.43
2018-12-31T08:47:42.818Z,7.70
2018-12-31T08:50:25.393Z,6.90
2018-12-31T08:56:16.595Z,6.23
2018-12-31T08:59:06.331Z,6.47
2018-12-31T09:01:48.376Z,6.60
2018-12-31T09:04:38.090Z,8.40
2018-12-31T09:07:20.774Z,8.83
2018-12-31T09:10:10.493Z,9.83
2018-12-31T09:15:56.170Z,8.40
2018-12-31T09:18:45.892Z,8.80
2018-12-31T09:21:28.161Z,8.77
2018-12-31T09:24:18.082Z,9.30
2018-12-31T09:27:00.709Z,9.40
2018-12-31T09:29:50.393Z,9.43
2018-12-31T09:32:32.815Z,8.93
2018-12-31T09:35:22.545Z,8.10
2018-12-31T09:38:04.904Z,7.57
2018-12-31T09:40:54.641Z,8.27
2018-12-31T09:43:37.134Z,8.33
2018-12-31T09:46:26.834Z,7.93
2018-12-31T09:49:09.392Z,8.23
2018-12-31T09:51:59.115Z,8.27
2018-12-31T09:54:41.710Z,7.83
2018-12-31T09:57:31.421Z,7.73
2018-12-31T10:00:13.270Z,7.40
2018-12-31T10:03:03.022Z,7.80
2018-12-31T10:05:45.915Z,7.43
2018-12-31T10:08:35.649Z,7.13
2018-12-31T10:11:25.365Z,7.30
2018-12-31T10:14:08.008Z,6.40
2018-12-31T10:17:10.511Z,6.07
2018-12-31T10:19:53.151Z,6.20
2018-12-31T10:22:42.899Z,6.13
2018-12-31T10:25:24.793Z,6.30
2018-12-31T10:31:16.577Z,6.37
2018-12-31T10:34:06.346Z,5.90
2018-12-31T10:36:48.424Z,5.93
2018-12-31T10:39:39.945Z,6.60
2018-12-31T10:42:22.373Z,6.53
2018-12-31T10:45:12.084Z,5.00
2018-12-31T10:48:01.818Z,4.80
2018-12-31T10:50:44.527Z,4.80
2018-12-31T10:53:53.519Z,5.80
2018-12-31T10:56:35.466Z,5.43
2018-12-31T10:59:25.314Z,4.97
2018-12-31T11:02:15.091Z,5.43
2018-12-31T11:05:04.885Z,5.13
2018-12-31T11:07:54.684Z,4.87
2018-12-31T11:10:44.417Z,5.00
2018-12-31T11:16:27.862Z,4.87
2018-12-31T11:19:17.683Z,5.23
2018-12-31T11:24:50.848Z,5.00
2018-12-31T11:27:40.536Z,5.17
2018-12-31T11:30:24.000Z,4.80
2018-12-31T11:33:13.716Z,5.37
2018-12-31T11:35:56.156Z,4.87
2018-12-31T11:38:45.942Z,5.23
2018-12-31T11:41:28.481Z,5.17
2018-12-31T11:44:18.312Z,4.90
2018-12-31T11:47:08.093Z,6.30
2018-12-31T11:49:59.632Z,7.80
2018-12-31T11:52:42.076Z,10.03
2018-12-31T11:55:31.839Z,5.80
2018-12-31T11:58:21.578Z,7.13
2018-12-31T12:01:11.340Z,7.67
2018-12-31T12:04:01.104Z,5.57
2018-12-31T12:06:50.890Z,9.43
2018-12-31T12:09:40.630Z,6.80
2018-12-31T12:12:49.495Z,5.40
2018-12-31T12:15:39.239Z,5.83
2018-12-31T12:18:29.229Z,6.07
2018-12-31T12:21:18.979Z,5.90
2018-12-31T12:24:08.806Z,5.53
2018-12-31T12:26:58.604Z,5.90
2018-12-31T12:29:48.477Z,6.00
2018-12-31T12:32:57.347Z,6.00
2018-12-31T12:35:47.083Z,5.97
2018-12-31T12:38:36.869Z,6.40
2018-12-31T12:41:26.662Z,6.87
2018-12-31T12:44:10.926Z,7.77
2018-12-31T12:47:00.649Z,7.20
2018-12-31T12:49:42.803Z,7.03
2018-12-31T12:52:51.665Z,6.73
2018-12-31T12:55:41.417Z,6.20
2018-12-31T12:58:31.163Z,7.43
2018-12-31T13:01:20.883Z,7.03
2018-12-31T13:07:19.237Z,7.37
2018-12-31T13:10:01.446Z,6.60
2018-12-31T13:12:51.188Z,6.07
2018-12-31T13:15:40.940Z,8.67
2018-12-31T13:18:30.747Z,7.20
2018-12-31T13:21:20.485Z,6.13
2018-12-31T13:24:10.282Z,6.27
2018-12-31T13:27:00.121Z,5.83
2018-12-31T13:32:32.207Z,5.90
2018-12-31T13:35:21.967Z,6.33
2018-12-31T13:38:04.282Z,6.90
2018-12-31T13:43:55.271Z,6.37
2018-12-31T13:46:44.964Z,6.13
2018-12-31T13:49:27.197Z,6.17
2018-12-31T13:52:16.939Z,6.70
2018-12-31T13:55:03.440Z,6.83
2018-12-31T13:57:53.255Z,6.97
2018-12-31T14:00:35.537Z,6.60
2018-12-31T14:03:25.233Z,7.07
2018-12-31T14:06:07.541Z,6.50
2018-12-31T14:08:57.259Z,6.73
2018-12-31T14:11:40.166Z,5.83
2018-12-31T14:14:30.153Z,7.80
2018-12-31T14:17:12.479Z,8.90
2018-12-31T14:20:02.150Z,5.97
2018-12-31T14:22:44.483Z,6.40
2018-12-31T14:28:35.171Z,7.17
2018-12-31T14:31:25.170Z,6.67
2018-12-31T14:34:07.422Z,6.63
2018-12-31T14:36:57.109Z,7.23
2018-12-31T14:39:39.764Z,7.43
2018-12-31T14:42:29.512Z,7.70
2018-12-31T14:45:12.224Z,7.60
2018-12-31T14:48:01.932Z,7.10
2018-12-31T14:50:44.331Z,7.63
2018-12-31T14:56:37.738Z,6.83
2018-12-31T14:59:27.602Z,7.10
2018-12-31T15:02:11.711Z,7.70
2018-12-31T15:05:01.469Z,8.37
2018-12-31T15:07:43.707Z,8.30
2018-12-31T15:10:33.448Z,8.97
2018-12-31T15:13:16.014Z,8.53
2018-12-31T15:16:05.750Z,7.93
2018-12-31T15:18:48.641Z,8.03
2018-12-31T15:21:38.346Z,8.37
2018-12-31T15:24:25.956Z,7.50
2018-12-31T15:27:15.704Z,8.57
2018-12-31T15:29:59.994Z,8.77
2018-12-31T15:32:49.732Z,8.70
2018-12-31T15:41:36.696Z,9.20
2018-12-31T15:44:19.664Z,9.37
2018-12-31T15:47:09.411Z,9.73
2018-12-31T15:49:51.995Z,9.93
2018-12-31T15:52:42.189Z,9.63
2018-12-31T15:58:35.635Z,10.07
2018-12-31T16:01:18.162Z,9.60
2018-12-31T16:07:00.378Z,10.43
2018-12-31T16:09:50.096Z,12.33
2018-12-31T16:12:39.819Z,15.87
2018-12-31T16:15:21.983Z,19.47
2018-12-31T16:21:14.872Z,24.90
2018-12-31T16:23:57.799Z,26.30
2018-12-31T16:26:47.563Z,26.40
2018-12-31T16:29:30.160Z,27.73
2018-12-31T16:32:20.232Z,27.13
2018-12-31T16:38:13.679Z,28.97
2018-12-31T16:40:55.909Z,30.00
2018-12-31T16:43:45.744Z,31.53
2018-12-31T16:46:35.647Z,31.17
2018-12-31T16:49:25.490Z,33.33
2018-12-31T16:52:15.414Z,31.77
2018-12-31T16:55:05.375Z,32.77
2018-12-31T16:57:48.317Z,32.13
2018-12-31T17:00:38.110Z,30.00
2018-12-31T17:03:27.903Z,35.17
2018-12-31T17:06:17.650Z,35.30
2018-12-31T17:09:27.748Z,36.87
2018-12-31T17:12:17.539Z,37.40
2018-12-31T17:15:07.391Z,37.27
2018-12-31T17:17:57.155Z,36.20
2018-12-31T17:20:46.963Z,34.37
2018-12-31T17:26:40.429Z,36.30
2018-12-31T17:29:24.063Z,38.47
2018-12-31T17:32:06.283Z,38.57
2018-12-31T17:34:56.106Z,36.43
2018-12-31T17:37:45.907Z,36.73
2018-12-31T17:40:35.691Z,37.17
2018-12-31T17:43:18.525Z,41.00
2018-12-31T17:46:27.445Z,39.27
2018-12-31T17:52:02.842Z,39.20
2018-12-31T17:54:52.833Z,36.93
2018-12-31T17:57:36.185Z,38.67
2018-12-31T18:00:25.886Z,39.37
2018-12-31T18:03:10.213Z,39.53
2018-12-31T18:08:55.557Z,36.70
2018-12-31T18:11:45.350Z,37.87
2018-12-31T18:14:35.177Z,32.63
2018-12-31T18:20:10.974Z,35.60
2018-12-31T18:23:00.734Z,33.33
2018-12-31T18:25:50.495Z,33.80
2018-12-31T18:28:40.274Z,32.70
2018-12-31T18:31:30.045Z,34.13
2018-12-31T18:34:19.824Z,34.50
2018-12-31T18:37:09.743Z,33.20
2018-12-31T18:39:59.485Z,34.27
2018-12-31T18:42:49.294Z,35.80
2018-12-31T18:45:39.074Z,36.67
2018-12-31T18:48:28.922Z,36.87
2018-12-31T18:51:18.808Z,37.63
2018-12-31T18:54:08.570Z,37.77
2018-12-31T18:56:58.382Z,35.30
2018-12-31T19:00:07.424Z,22.47
2018-12-31T19:02:57.214Z,25.10
2018-12-31T19:05:46.990Z,27.53
2018-12-31T19:08:36.901Z,25.43
2018-12-31T19:11:26.691Z,25.83
2018-12-31T19:14:16.541Z,26.43
2018-12-31T19:20:00.220Z,24.77
2018-12-31T19:22:50.006Z,21.97
2018-12-31T19:25:39.718Z,22.17
2018-12-31T19:28:22.086Z,20.97
2018-12-31T19:31:12.021Z,22.13
2018-12-31T19:34:01.930Z,25.57
2018-12-31T19:36:51.724Z,22.33
2018-12-31T19:39:41.442Z,22.67
2018-12-31T19:42:31.194Z,20.30
2018-12-31T19:45:20.976Z,22.30
2018-12-31T19:48:10.744Z,33.00
2018-12-31T19:51:00.515Z,28.47
2018-12-31T19:54:09.405Z,22.90
2018-12-31T19:59:48.040Z,23.13
2018-12-31T20:02:37.772Z,24.07
2018-12-31T20:05:20.418Z,22.57
2018-12-31T20:08:10.144Z,21.93
2018-12-31T20:10:52.876Z,21.87
2018-12-31T20:13:42.650Z,20.77
2018-12-31T20:16:25.268Z,20.77
2018-12-31T20:19:15.092Z,18.93
2018-12-31T20:21:57.780Z,20.27
2018-12-31T20:24:47.512Z,26.57
2018-12-31T20:27:32.058Z,27.17
2018-12-31T20:30:21.814Z,31.30
2018-12-31T20:33:03.813Z,28.13
2018-12-31T20:35:53.556Z,29.03
2018-12-31T20:38:35.767Z,30.77
2018-12-31T20:41:25.552Z,30.43
2018-12-31T20:44:07.974Z,30.33
2018-12-31T20:46:58.021Z,30.73
2018-12-31T20:49:40.393Z,29.50
2018-12-31T20:52:30.185Z,30.53
2018-12-31T20:55:18.135Z,30.27
2018-12-31T20:58:00.116Z,31.63
2018-12-31T21:00:49.974Z,28.53
2018-12-31T21:03:39.803Z,25.63
2018-12-31T21:06:29.715Z,22.17
2018-12-31T21:09:19.481Z,22.90
2018-12-31T21:12:09.229Z,30.37
2018-12-31T21:14:59.033Z,28.40
2018-12-31T21:17:48.798Z,29.07
2018-12-31T21:20:38.578Z,36.53
2018-12-31T21:23:20.777Z,52.93
2018-12-31T21:26:10.663Z,99.67
2018-12-31T21:28:55.167Z,39.57
2018-12-31T21:31:44.933Z,32.17
2018-12-31T21:34:34.736Z,29.53
2018-12-31T21:37:24.517Z,26.80
2018-12-31T21:40:14.287Z,25.40
2018-12-31T21:43:23.087Z,29.87
2018-12-31T21:46:12.835Z,29.10
2018-12-31T21:48:55.159Z,28.97
2018-12-31T21:51:44.963Z,27.27
2018-12-31T21:54:34.782Z,30.50
2018-12-31T21:57:24.925Z,31.97
2018-12-31T22:00:14.705Z,32.37
2018-12-31T22:03:04.457Z,31.17
2018-12-31T22:05:54.361Z,44.00
2018-12-31T22:11:32.755Z,40.47
2018-12-31T22:14:22.665Z,49.13
2018-12-31T22:17:04.750Z,30.97
2018-12-31T22:19:54.440Z,37.30
2018-12-31T22:22:44.205Z,34.50
2018-12-31T22:25:26.251Z,24.83
2018-12-31T22:28:16.067Z,28.47
2018-12-31T22:31:05.810Z,26.23
2018-12-31T22:34:07.458Z,25.93
2018-12-31T22:36:50.215Z,23.50
2018-12-31T22:39:39.943Z,26.50
2018-12-31T22:42:22.260Z,21.73
2018-12-31T22:45:12.013Z,21.73
2018-12-31T22:47:54.898Z,22.70
2018-12-31T22:50:44.683Z,20.07
2018-12-31T22:53:26.973Z,18.73
2018-12-31T22:56:16.720Z,16.40
2018-12-31T22:58:58.985Z,18.57
2018-12-31T23:01:48.993Z,17.43
2018-12-31T23:04:31.701Z,16.50
2018-12-31T23:07:21.469Z,16.67
2018-12-31T23:10:04.118Z,16.97
2018-12-31T23:12:53.853Z,18.03
2018-12-31T23:15:36.756Z,19.67
2018-12-31T23:18:26.508Z,18.67
2018-12-31T23:21:08.866Z,20.03
2018-12-31T23:23:58.615Z,20.83
2018-12-31T23:26:40.806Z,20.50
2018-12-31T23:29:30.553Z,18.43
2018-12-31T23:32:12.961Z,18.37
2018-12-31T23:35:02.699Z,18.43
2018-12-31T23:37:45.895Z,18.33
2018-12-31T23:40:36.127Z,19.17
2018-12-31T23:43:19.666Z,18.70
2018-12-31T23:46:09.416Z,21.27
2018-12-31T23:48:52.059Z,21.17
2018-12-31T23:51:41.784Z,22.03
2018-12-31T23:54:25.408Z,22.47
